This is the latest recevied weather packets stored in our database for station/object OH2HCY-3. If no packets are shown the sender has not sent any weather packets the latest 10 day(s).
| Time | Temp. | Humidity | Pressure | Rain* | Wind** | Luminosity | Snow |
|---|---|---|---|---|---|---|---|
| 1787608832 | 10.56° C | 88% | 1016 hPa | - | - | - | - |
| 1787607797 | 10.56° C | 88% | 1015.9 hPa | - | - | - | - |
| 1787606791 | 11.11° C | 88% | 1015.8 hPa | - | - | - | - |
| 1787606787 | 11.11° C | 88% | 1015.8 hPa | - | - | - | - |
| 1787605602 | 11.11° C | 88% | 1015.7 hPa | - | - | - | - |
| 1787604422 | 11.11° C | 87% | 1015.5 hPa | - | - | - | - |
| 1787603262 | - | - | - | - | - | - | - |
| 1787603258 | 11.67° C | 86% | 1015.3 hPa | - | - | - | - |
| 1787602147 | 11.67° C | 85% | 1015.2 hPa | - | - | - | - |
| 1787601066 | 12.22° C | 84% | 1015.2 hPa | - | - | - | - |
| 1787601064 | 12.22° C | 84% | 1015.2 hPa | - | - | - | - |
| 1787600059 | 12.78° C | 83% | 1015.1 hPa | - | - | - | - |
| 1787598922 | 13.33° C | 83% | 1014.9 hPa | - | - | - | - |
| 1787597901 | 13.33° C | 83% | 1014.8 hPa | - | - | - | - |
| 1787596857 | 13.33° C | 83% | 1014.7 hPa | - | - | - | - |
| 1787595686 | 13.33° C | 82% | 1014.7 hPa | - | - | - | - |
| 1787595682 | 13.33° C | 82% | 1014.7 hPa | - | - | - | - |
| 1787594714 | 13.89° C | 80% | 1014.6 hPa | - | - | - | - |
| 1787593556 | 14.44° C | 77% | 1014.5 hPa | - | - | - | - |
| 1787592362 | 15.56° C | 72% | 1014.4 hPa | - | - | - | - |
| 1787591352 | 16.67° C | 68% | 1014.3 hPa | - | - | - | - |
| 1787590297 | 17.22° C | 63% | 1014.2 hPa | - | - | - | - |
| 1787589169 | 17.78° C | 61% | - | - | - | - | - |
| 1787589167 | 17.78° C | 61% | 1014.1 hPa | - | - | - | - |
| 1787588062 | 17.22° C | 61% | 1014.1 hPa | - | - | - | - |
* Rain since midnight (hover to see other rain measurements)
** Current wind speed in m/s (hover to see current wind gust speed)